Time;durP1;ratioP1;P1;durP2;ratioP2;P2;SDS_P1;SDS_P2;PMS_P1;PMS_P2;Temp;Humidity;BMP_temperature;BMP_pressure;BME280_temperature;BME280_humidity;BME280_pressure;Samples;Min_cycle;Max_cycle;Signal;HPM_P1;HPM_P2
2021/08/31 00:00:16;;;;;;;10.80;9.45;;;16.50;99.90;;;;;;5063496;28;20050;-79
2021/08/31 00:02:43;;;;;;;12.88;9.45;;;16.50;99.90;;;;;;5040966;28;20111;-79
2021/08/31 00:05:12;;;;;;;15.77;9.38;;;16.50;99.90;;;;;;5037536;28;20049;-77
2021/08/31 00:07:39;;;;;;;11.32;8.52;;;16.50;99.90;;;;;;5038690;28;20048;-79
2021/08/31 00:10:08;;;;;;;14.68;9.00;;;16.50;99.90;;;;;;5038338;28;20199;-79
2021/08/31 00:12:35;;;;;;;12.35;9.45;;;16.50;99.90;;;;;;5047350;28;20048;-78
2021/08/31 00:15:04;;;;;;;14.25;9.30;;;16.50;99.90;;;;;;5050868;28;20052;-79
2021/08/31 00:17:31;;;;;;;11.38;9.23;;;16.50;99.90;;;;;;5048815;28;20473;-79
2021/08/31 00:19:58;;;;;;;12.75;9.48;;;16.50;99.90;;;;;;5038568;28;20060;-80
2021/08/31 00:22:25;;;;;;;13.23;9.35;;;16.50;99.90;;;;;;5035923;28;20107;-79
2021/08/31 00:24:53;;;;;;;11.35;9.00;;;16.50;99.90;;;;;;5041133;28;20386;-79
2021/08/31 00:27:20;;;;;;;11.25;8.85;;;16.40;99.90;;;;;;5046782;28;20048;-79
2021/08/31 00:29:46;;;;;;;14.27;9.10;;;16.50;99.90;;;;;;5051243;28;20590;-76
2021/08/31 00:32:13;;;;;;;11.80;9.07;;;16.40;99.90;;;;;;5040336;28;20106;-79
2021/08/31 00:34:40;;;;;;;16.52;9.70;;;16.40;99.90;;;;;;5037873;28;20381;-78
2021/08/31 00:37:07;;;;;;;14.10;8.93;;;16.40;99.90;;;;;;5038327;28;20107;-79
2021/08/31 00:39:34;;;;;;;13.55;9.43;;;16.40;99.90;;;;;;5046633;28;20056;-79
2021/08/31 00:42:01;;;;;;;11.90;8.85;;;16.40;99.90;;;;;;5050542;28;20048;-79
2021/08/31 00:44:29;;;;;;;12.10;9.48;;;16.40;99.90;;;;;;5047628;28;20526;-79
2021/08/31 00:46:59;;;;;;;13.68;9.35;;;16.40;99.90;;;;;;5038064;28;20048;-80
2021/08/31 00:49:27;;;;;;;14.32;9.23;;;16.30;99.90;;;;;;5062674;28;20052;-76
2021/08/31 00:51:54;;;;;;;14.30;8.50;;;16.30;99.90;;;;;;5040249;28;20440;-79
2021/08/31 00:54:22;;;;;;;15.98;9.85;;;16.30;99.90;;;;;;5046340;28;20114;-78
2021/08/31 00:56:51;;;;;;;14.02;9.52;;;16.30;99.90;;;;;;5050749;28;20048;-79
2021/08/31 00:59:19;;;;;;;15.88;10.10;;;16.30;99.90;;;;;;5045161;28;20055;-79
2021/08/31 01:01:50;;;;;;;14.35;9.68;;;16.20;99.90;;;;;;5037518;28;20053;-80
2021/08/31 01:04:21;;;;;;;12.57;9.43;;;16.20;99.90;;;;;;5034164;28;20072;-79
2021/08/31 01:06:52;;;;;;;11.98;9.98;;;16.20;99.90;;;;;;5041141;28;20053;-79
2021/08/31 01:09:21;;;;;;;16.05;10.18;;;16.20;99.90;;;;;;5046393;28;20068;-78
2021/08/31 01:11:49;;;;;;;19.48;10.13;;;16.20;99.90;;;;;;5050090;28;20534;-77
2021/08/31 01:14:17;;;;;;;13.80;9.95;;;16.20;99.90;;;;;;5061964;28;20055;-79
2021/08/31 01:16:46;;;;;;;15.45;10.25;;;16.20;99.90;;;;;;5037410;28;20056;-79
2021/08/31 01:19:25;;;;;;;16.13;9.70;;;16.20;99.90;;;;;;5033086;28;20037;-79
2021/08/31 01:21:52;;;;;;;21.73;10.35;;;16.20;99.90;;;;;;5040104;28;20076;-79
2021/08/31 01:24:19;;;;;;;17.17;10.18;;;16.20;99.90;;;;;;5045881;28;20496;-78
2021/08/31 01:26:49;;;;;;;15.35;10.48;;;16.10;99.90;;;;;;5068043;28;20052;-79
2021/08/31 01:29:16;;;;;;;14.73;10.30;;;16.10;99.90;;;;;;5045237;28;20045;-80
2021/08/31 01:31:43;;;;;;;19.98;10.73;;;16.10;99.90;;;;;;5042591;28;20048;-79
2021/08/31 01:34:10;;;;;;;16.75;10.90;;;16.10;99.90;;;;;;5036933;28;20444;-78
2021/08/31 01:36:37;;;;;;;14.00;10.55;;;16.10;99.90;;;;;;5034885;28;20482;-78
2021/08/31 01:39:05;;;;;;;16.75;10.70;;;16.10;99.90;;;;;;5030149;28;20053;-76
2021/08/31 01:41:32;;;;;;;13.90;10.57;;;16.10;99.90;;;;;;5051516;28;20052;-79
2021/08/31 01:43:59;;;;;;;16.10;10.82;;;16.00;99.90;;;;;;5036685;28;20088;-79
2021/08/31 01:46:26;;;;;;;14.68;10.07;;;16.00;99.90;;;;;;5037963;28;20045;-76
2021/08/31 01:48:53;;;;;;;18.88;10.57;;;16.00;99.90;;;;;;5036318;28;20383;-79
2021/08/31 01:51:20;;;;;;;15.35;10.85;;;16.00;99.90;;;;;;5044802;28;20050;-77
2021/08/31 01:53:47;;;;;;;17.65;10.40;;;16.00;99.90;;;;;;5070350;28;20052;-77
2021/08/31 01:56:14;;;;;;;18.50;11.02;;;16.00;99.90;;;;;;5060873;28;20098;-78
2021/08/31 01:58:41;;;;;;;16.38;10.50;;;16.00;99.90;;;;;;5035861;28;20044;-78
2021/08/31 02:01:08;;;;;;;18.35;10.65;;;16.00;99.90;;;;;;5037030;28;20037;-79
2021/08/31 02:03:35;;;;;;;16.38;10.63;;;16.00;99.90;;;;;;5046617;28;20053;-78
2021/08/31 02:06:03;;;;;;;14.32;10.93;;;15.90;99.90;;;;;;5050994;28;20122;-79
2021/08/31 02:08:30;;;;;;;18.02;11.05;;;15.90;99.90;;;;;;5051343;28;20393;-76
2021/08/31 02:10:57;;;;;;;16.00;11.02;;;15.90;99.90;;;;;;5035868;28;20107;-78
2021/08/31 02:13:24;;;;;;;18.05;12.13;;;15.90;99.90;;;;;;5045431;28;20052;-78
2021/08/31 02:15:50;;;;;;;15.60;11.48;;;15.90;99.90;;;;;;5039931;28;20084;-79
2021/08/31 02:18:17;;;;;;;14.35;11.35;;;15.90;99.90;;;;;;5049488;28;20076;-76
2021/08/31 02:20:45;;;;;;;16.77;12.18;;;15.90;99.90;;;;;;5057379;28;20078;-79
2021/08/31 02:23:11;;;;;;;18.60;11.60;;;15.90;99.90;;;;;;5051765;28;20049;-77
2021/08/31 02:25:38;;;;;;;19.35;11.93;;;15.80;99.90;;;;;;5040056;28;20079;-77
2021/08/31 02:28:05;;;;;;;15.43;11.82;;;15.90;99.90;;;;;;5040566;28;20095;-79
2021/08/31 02:30:32;;;;;;;13.48;11.18;;;15.80;99.90;;;;;;5048107;28;20053;-79
2021/08/31 02:33:03;;;;;;;19.33;11.20;;;15.80;99.90;;;;;;5054882;28;20056;-79
2021/08/31 02:35:31;;;;;;;20.08;12.07;;;15.80;99.90;;;;;;5045502;28;20044;-77
2021/08/31 02:37:58;;;;;;;18.80;12.40;;;15.80;99.90;;;;;;5030400;28;20041;-77
2021/08/31 02:40:25;;;;;;;18.13;11.93;;;15.80;99.90;;;;;;5032305;28;20056;-79
2021/08/31 02:42:52;;;;;;;17.92;11.50;;;15.80;99.90;;;;;;5039591;28;20041;-79
2021/08/31 02:45:19;;;;;;;20.10;12.55;;;15.80;99.90;;;;;;5048709;28;20048;-79
2021/08/31 02:47:46;;;;;;;16.90;12.15;;;15.70;99.90;;;;;;5057002;28;20098;-79
2021/08/31 02:50:13;;;;;;;19.95;12.75;;;15.80;99.90;;;;;;5044245;28;20428;-78
2021/08/31 02:52:40;;;;;;;16.05;11.60;;;15.80;99.90;;;;;;5039937;28;20056;-79
2021/08/31 02:55:07;;;;;;;20.45;12.20;;;15.70;99.90;;;;;;5039835;28;20042;-79
2021/08/31 02:57:34;;;;;;;17.90;12.23;;;15.70;99.90;;;;;;5049062;28;20095;-79
2021/08/31 03:00:02;;;;;;;18.30;11.77;;;15.70;99.90;;;;;;5052674;28;20098;-79
2021/08/31 03:02:29;;;;;;;20.30;12.45;;;15.70;99.90;;;;;;5049973;28;20128;-75
2021/08/31 03:04:56;;;;;;;16.50;12.40;;;15.70;99.90;;;;;;5039579;28;20040;-76
2021/08/31 03:07:23;;;;;;;19.83;12.90;;;15.70;99.90;;;;;;5037343;28;20160;-79
2021/08/31 03:09:50;;;;;;;17.40;11.88;;;15.70;99.90;;;;;;5042566;28;20041;-79
2021/08/31 03:12:18;;;;;;;18.48;12.10;;;15.60;99.90;;;;;;5047791;28;20099;-80
2021/08/31 03:14:45;;;;;;;18.92;11.80;;;15.60;99.90;;;;;;5052962;28;20102;-79
2021/08/31 03:17:12;;;;;;;22.80;12.45;;;15.60;99.90;;;;;;5046940;28;20105;-79
2021/08/31 03:19:39;;;;;;;21.00;12.85;;;15.60;99.90;;;;;;5039600;28;20084;-78
2021/08/31 03:22:09;;;;;;;20.40;12.17;;;15.60;99.90;;;;;;5063982;28;20044;-79
2021/08/31 03:24:36;;;;;;;19.40;12.85;;;15.60;99.90;;;;;;5048460;28;20057;-77
2021/08/31 03:27:05;;;;;;;17.13;12.45;;;15.60;99.90;;;;;;5051881;28;20052;-76
2021/08/31 03:29:32;;;;;;;19.95;13.13;;;15.60;99.90;;;;;;5050338;28;20056;-77
2021/08/31 03:31:59;;;;;;;19.92;11.65;;;15.60;99.90;;;;;;5045068;28;20056;-77
2021/08/31 03:34:26;;;;;;;18.38;11.82;;;15.60;99.90;;;;;;5038482;28;20531;-79
2021/08/31 03:36:53;;;;;;;20.40;12.80;;;15.60;99.90;;;;;;5041592;28;20041;-79
2021/08/31 03:39:20;;;;;;;18.50;11.65;;;15.60;99.90;;;;;;5047610;28;20049;-79
2021/08/31 03:41:47;;;;;;;20.23;12.43;;;15.50;99.90;;;;;;5052141;28;20477;-78
2021/08/31 03:44:14;;;;;;;20.02;11.98;;;15.50;99.90;;;;;;5038881;28;20500;-79
2021/08/31 03:46:41;;;;;;;15.27;12.35;;;15.50;99.90;;;;;;5039049;28;20045;-77
2021/08/31 03:49:08;;;;;;;21.00;13.68;;;15.50;99.90;;;;;;5038937;28;21795;-79
2021/08/31 03:51:35;;;;;;;16.98;12.68;;;15.50;99.90;;;;;;5048714;28;20053;-78
2021/08/31 03:54:02;;;;;;;21.92;12.95;;;15.50;99.90;;;;;;5052763;28;20048;-80
2021/08/31 03:56:29;;;;;;;18.30;13.15;;;15.50;99.90;;;;;;5063594;28;20049;-78
2021/08/31 03:58:56;;;;;;;19.25;13.20;;;15.50;99.90;;;;;;5039694;28;20040;-78
2021/08/31 04:01:23;;;;;;;22.67;12.93;;;15.40;99.90;;;;;;5038188;28;20363;-78
2021/08/31 04:03:50;;;;;;;22.75;13.18;;;15.40;99.90;;;;;;5041753;28;20041;-78
2021/08/31 04:06:17;;;;;;;19.20;12.40;;;15.40;99.90;;;;;;5047277;28;20045;-76
2021/08/31 04:08:44;;;;;;;21.42;12.93;;;15.40;99.90;;;;;;5051682;28;20064;-80
2021/08/31 04:11:11;;;;;;;17.75;11.95;;;15.40;99.90;;;;;;5045211;28;20098;-80
2021/08/31 04:13:38;;;;;;;21.70;12.68;;;15.40;99.90;;;;;;5038677;28;20044;-77
2021/08/31 04:16:05;;;;;;;19.40;13.18;;;15.40;99.90;;;;;;5063038;28;20102;-77
2021/08/31 04:18:32;;;;;;;17.00;12.38;;;15.40;99.90;;;;;;5048468;28;20057;-79
2021/08/31 04:20:59;;;;;;;20.05;13.10;;;15.40;99.90;;;;;;5051195;28;20044;-79
2021/08/31 04:23:25;;;;;;;16.77;12.30;;;15.40;99.90;;;;;;5045853;28;20040;-80
2021/08/31 04:25:52;;;;;;;19.30;12.45;;;15.30;99.90;;;;;;5038393;28;20044;-79
2021/08/31 04:28:19;;;;;;;18.58;12.52;;;15.40;99.90;;;;;;5035199;28;20620;-80
2021/08/31 04:30:46;;;;;;;20.77;13.30;;;15.30;99.90;;;;;;5044898;28;20526;-78
2021/08/31 04:33:13;;;;;;;24.10;12.73;;;15.30;99.90;;;;;;5049900;28;20049;-80
2021/08/31 04:35:40;;;;;;;22.85;13.07;;;15.30;99.90;;;;;;5050180;28;20055;-80
2021/08/31 04:38:07;;;;;;;17.15;12.77;;;15.30;99.90;;;;;;5037184;28;20476;-79
2021/08/31 04:40:34;;;;;;;21.30;12.60;;;15.30;99.90;;;;;;5037628;28;20048;-79
2021/08/31 04:43:01;;;;;;;18.83;13.00;;;15.30;99.90;;;;;;5039454;28;20424;-78
2021/08/31 04:45:28;;;;;;;17.13;13.05;;;15.30;99.90;;;;;;5046417;28;20056;-77
2021/08/31 04:47:55;;;;;;;22.92;13.15;;;15.30;99.90;;;;;;5050612;28;20048;-80
2021/08/31 04:50:22;;;;;;;21.67;13.65;;;15.30;99.90;;;;;;5039346;28;20098;-80
2021/08/31 04:52:49;;;;;;;23.48;13.75;;;15.30;99.90;;;;;;5025961;28;20098;-78
2021/08/31 04:55:16;;;;;;;22.65;12.57;;;15.30;99.90;;;;;;5042952;28;20437;-80
2021/08/31 04:57:43;;;;;;;21.05;13.07;;;15.30;99.90;;;;;;5059401;28;20103;-79
2021/08/31 05:00:10;;;;;;;18.88;13.27;;;15.20;99.90;;;;;;5043825;28;20049;-80
2021/08/31 05:02:38;;;;;;;16.88;12.05;;;15.20;99.90;;;;;;5042362;28;20073;-78
2021/08/31 05:05:05;;;;;;;17.27;12.88;;;15.20;99.90;;;;;;5036755;28;20053;-78
2021/08/31 05:07:32;;;;;;;17.85;13.40;;;15.20;99.90;;;;;;5064540;28;20087;-79
2021/08/31 05:09:59;;;;;;;18.67;12.55;;;15.20;99.90;;;;;;5035378;28;20434;-79
2021/08/31 05:12:26;;;;;;;17.15;12.90;;;15.20;99.90;;;;;;5045609;28;20048;-78
2021/08/31 05:14:53;;;;;;;15.80;12.25;;;15.20;99.90;;;;;;5052830;28;20432;-80
2021/08/31 05:17:20;;;;;;;20.60;12.25;;;15.20;99.90;;;;;;5038949;28;20053;-78
2021/08/31 05:19:47;;;;;;;17.90;13.05;;;15.20;99.90;;;;;;5036974;28;20045;-80
2021/08/31 05:22:14;;;;;;;21.00;13.55;;;15.20;99.90;;;;;;5036715;28;20052;-78
2021/08/31 05:24:42;;;;;;;22.63;13.07;;;15.10;99.90;;;;;;5046069;28;20037;-79
2021/08/31 05:27:09;;;;;;;18.02;12.18;;;15.10;99.90;;;;;;5049360;28;20102;-77
2021/08/31 05:29:36;;;;;;;19.27;13.43;;;15.20;99.90;;;;;;5049013;28;20052;-79
2021/08/31 05:32:03;;;;;;;19.90;13.15;;;15.10;99.90;;;;;;5045022;28;20044;-79
2021/08/31 05:34:30;;;;;;;21.63;13.15;;;15.10;99.90;;;;;;5056971;28;20056;-77
2021/08/31 05:36:58;;;;;;;19.08;12.80;;;15.10;99.90;;;;;;5035716;28;20133;-76
2021/08/31 05:39:32;;;;;;;19.35;13.35;;;15.10;99.90;;;;;;5046082;28;20354;-79
2021/08/31 05:42:04;;;;;;;22.02;12.20;;;15.10;99.90;;;;;;5051788;28;20473;-80
2021/08/31 05:44:37;;;;;;;20.88;13.70;;;15.10;99.90;;;;;;5062689;28;20045;-78
2021/08/31 05:47:05;;;;;;;18.23;12.20;;;15.10;99.90;;;;;;5036508;28;20440;-80
2021/08/31 05:49:32;;;;;;;18.08;12.90;;;15.10;99.90;;;;;;5042202;28;20429;-79
2021/08/31 05:52:00;;;;;;;18.38;12.07;;;15.10;99.90;;;;;;5036339;28;20037;-80
2021/08/31 05:54:27;;;;;;;19.63;12.17;;;15.10;99.90;;;;;;5050926;28;20543;-78
2021/08/31 05:56:56;;;;;;;18.48;12.98;;;15.10;99.90;;;;;;5056261;28;20052;-80
2021/08/31 05:59:24;;;;;;;20.27;12.13;;;15.10;99.90;;;;;;5044097;28;20070;-77
2021/08/31 06:01:55;;;;;;;21.20;12.38;;;15.10;99.90;;;;;;5041326;28;20477;-80
2021/08/31 06:04:38;;;;;;;20.23;12.25;;;15.10;99.90;;;;;;5042133;28;20427;-79
2021/08/31 06:07:10;;;;;;;19.65;13.05;;;15.10;99.90;;;;;;5040699;28;20045;-76
2021/08/31 06:09:39;;;;;;;17.15;12.45;;;15.20;99.90;;;;;;5038234;28;20355;-78
2021/08/31 06:12:10;;;;;;;19.63;12.13;;;15.20;99.90;;;;;;5033553;28;20054;-80
2021/08/31 06:14:39;;;;;;;17.38;12.23;;;15.20;99.90;;;;;;5032790;28;20436;-79
2021/08/31 06:17:06;;;;;;;18.80;12.30;;;15.20;99.90;;;;;;5036866;28;20041;-78
2021/08/31 06:19:33;;;;;;;16.83;11.70;;;15.30;99.90;;;;;;5045209;28;20045;-80
2021/08/31 06:22:01;;;;;;;17.30;12.23;;;15.30;99.90;;;;;;5043975;28;20052;-79
2021/08/31 06:24:28;;;;;;;17.58;11.77;;;15.30;99.90;;;;;;5038599;28;20052;-80
2021/08/31 06:26:55;;;;;;;18.58;11.68;;;15.40;99.90;;;;;;5044723;28;20095;-80
2021/08/31 06:29:22;;;;;;;16.38;11.60;;;15.40;99.90;;;;;;5035476;28;20044;-78
2021/08/31 06:31:49;;;;;;;17.42;11.38;;;15.40;99.90;;;;;;5040112;28;20444;-79
2021/08/31 06:34:16;;;;;;;22.15;10.85;;;15.50;99.90;;;;;;5043443;28;20053;-77
2021/08/31 06:36:42;;;;;;;17.45;11.02;;;15.50;99.90;;;;;;5042823;28;20041;-78
2021/08/31 06:39:09;;;;;;;15.82;12.00;;;15.60;99.90;;;;;;5032241;28;20049;-80
2021/08/31 06:41:36;;;;;;;16.08;11.13;;;15.60;99.90;;;;;;5055925;28;20103;-79
2021/08/31 06:44:04;;;;;;;16.38;12.20;;;15.70;99.90;;;;;;5032663;28;20045;-79
2021/08/31 06:46:31;;;;;;;14.80;11.40;;;15.70;99.90;;;;;;5038374;28;20053;-79
2021/08/31 06:49:10;;;;;;;16.73;11.30;;;15.80;99.90;;;;;;5042297;28;20083;-79
2021/08/31 06:51:37;;;;;;;16.00;10.93;;;15.80;99.90;;;;;;5038183;28;20497;-80
2021/08/31 06:54:04;;;;;;;14.90;10.70;;;15.90;99.90;;;;;;5044450;28;20046;-75
2021/08/31 06:56:31;;;;;;;19.55;11.32;;;15.90;99.90;;;;;;5032273;28;20145;-80
2021/08/31 06:58:58;;;;;;;20.67;10.98;;;16.00;99.90;;;;;;5033194;28;20069;-79
2021/08/31 07:01:25;;;;;;;14.80;9.75;;;16.10;99.90;;;;;;5036620;28;20052;-78
2021/08/31 07:03:52;;;;;;;17.40;10.88;;;16.10;99.90;;;;;;5051944;28;20065;-80
2021/08/31 07:06:19;;;;;;;14.48;9.98;;;16.20;99.90;;;;;;5037904;28;20053;-79
2021/08/31 07:08:46;;;;;;;19.45;10.57;;;16.30;99.90;;;;;;5049254;28;20378;-76
2021/08/31 07:11:14;;;;;;;17.70;10.50;;;16.30;99.90;;;;;;5047056;28;20057;-79
2021/08/31 07:13:41;;;;;;;15.50;9.50;;;16.40;99.90;;;;;;5018330;28;20060;-79
2021/08/31 07:16:07;;;;;;;15.63;9.68;;;16.50;99.90;;;;;;5031391;28;20371;-78
2021/08/31 07:18:34;;;;;;;13.13;9.50;;;16.60;99.90;;;;;;5046992;28;20182;-80
2021/08/31 07:21:01;;;;;;;13.98;10.55;;;16.70;99.90;;;;;;5037278;28;20504;-79
2021/08/31 07:23:28;;;;;;;17.13;9.63;;;16.80;99.90;;;;;;5037382;28;20436;-78
2021/08/31 07:25:55;;;;;;;13.45;8.98;;;16.90;99.90;;;;;;5031491;28;20432;-77
2021/08/31 07:28:22;;;;;;;14.80;8.85;;;16.90;99.90;;;;;;5030229;28;20139;-79
2021/08/31 07:30:50;;;;;;;20.38;9.65;;;17.00;99.90;;;;;;5036355;28;20045;-77
2021/08/31 07:33:16;;;;;;;17.83;9.65;;;17.00;99.90;;;;;;5035708;28;20044;-75
2021/08/31 07:35:44;;;;;;;13.30;9.07;;;17.10;99.90;;;;;;5045212;28;20041;-79
2021/08/31 07:38:11;;;;;;;13.55;10.10;;;17.10;99.90;;;;;;5035398;28;20049;-80
2021/08/31 07:40:38;;;;;;;15.73;8.65;;;17.10;99.90;;;;;;5037373;28;20048;-77
2021/08/31 07:43:05;;;;;;;11.70;8.73;;;17.20;99.90;;;;;;5044437;28;20095;-79
2021/08/31 07:45:35;;;;;;;14.75;8.20;;;17.20;99.90;;;;;;5027837;28;20076;-79
2021/08/31 07:48:02;;;;;;;15.35;9.45;;;17.20;99.90;;;;;;5034736;28;20045;-76
2021/08/31 07:50:29;;;;;;;16.10;9.07;;;17.30;99.90;;;;;;5040465;28;20049;-79
2021/08/31 07:52:56;;;;;;;14.57;8.73;;;17.40;99.90;;;;;;5033633;28;20047;-76
2021/08/31 07:55:23;;;;;;;10.52;7.70;;;17.50;99.90;;;;;;5032476;28;20056;-79
2021/08/31 07:57:50;;;;;;;11.75;8.07;;;17.50;99.90;;;;;;5029795;28;20060;-76
2021/08/31 08:00:18;;;;;;;13.23;7.65;;;17.60;99.90;;;;;;5040405;28;20060;-77
2021/08/31 08:02:45;;;;;;;14.15;8.50;;;17.60;99.90;;;;;;5031623;28;20401;-81
2021/08/31 08:05:13;;;;;;;11.88;7.72;;;17.70;99.90;;;;;;5027223;28;20067;-77
2021/08/31 08:07:40;;;;;;;14.10;7.90;;;17.70;99.90;;;;;;5051623;28;20049;-79
2021/08/31 08:10:07;;;;;;;11.63;8.02;;;17.70;99.90;;;;;;5025908;28;20060;-80
2021/08/31 08:12:35;;;;;;;14.33;7.43;;;17.80;99.90;;;;;;5032553;28;20063;-79
2021/08/31 08:15:03;;;;;;;13.90;8.00;;;17.80;99.90;;;;;;5051338;28;20091;-79
2021/08/31 08:17:30;;;;;;;12.82;7.75;;;17.90;99.90;;;;;;5030638;28;20052;-77
2021/08/31 08:19:57;;;;;;;12.65;8.00;;;17.90;99.90;;;;;;5031494;28;20056;-79
2021/08/31 08:22:25;;;;;;;12.38;7.72;;;18.00;99.90;;;;;;5042865;28;20048;-80
2021/08/31 08:24:52;;;;;;;13.50;7.33;;;18.10;99.90;;;;;;5031575;28;20053;-80
2021/08/31 08:27:19;;;;;;;9.23;6.93;;;18.20;99.90;;;;;;5027521;28;20304;-80
2021/08/31 08:29:46;;;;;;;8.80;6.70;;;18.20;99.90;;;;;;5038425;28;20075;-80
2021/08/31 08:32:13;;;;;;;10.07;6.63;;;18.30;99.90;;;;;;5018837;28;20061;-79
2021/08/31 08:34:40;;;;;;;10.07;6.28;;;18.30;99.90;;;;;;5029658;28;20433;-80
2021/08/31 08:37:08;;;;;;;11.80;6.90;;;18.30;99.90;;;;;;5038678;28;20046;-78
2021/08/31 08:39:35;;;;;;;11.52;6.68;;;18.30;99.90;;;;;;5040895;28;20437;-79
2021/08/31 08:42:05;;;;;;;10.43;5.68;;;18.30;99.90;;;;;;5030693;28;20060;-80
2021/08/31 08:44:33;;;;;;;7.03;5.55;;;18.30;99.90;;;;;;5032011;28;20044;-79
2021/08/31 08:47:01;;;;;;;8.80;5.45;;;18.40;99.90;;;;;;5033669;28;20051;-80
2021/08/31 08:49:29;;;;;;;7.77;5.33;;;18.30;99.90;;;;;;5037839;28;20076;-78
2021/08/31 08:51:59;;;;;;;10.80;5.32;;;18.40;99.90;;;;;;5023110;28;20118;-80
2021/08/31 08:54:27;;;;;;;7.35;5.13;;;18.50;99.90;;;;;;5043553;28;20054;-80
2021/08/31 08:56:55;;;;;;;10.27;4.72;;;18.50;99.90;;;;;;5040876;28;20052;-81
2021/08/31 08:59:23;;;;;;;7.53;5.00;;;18.60;99.90;;;;;;5044437;28;20041;-78
2021/08/31 09:01:52;;;;;;;7.63;5.07;;;18.60;99.90;;;;;;5031986;28;20386;-79
2021/08/31 09:04:49;;;;;;;7.45;5.10;;;18.70;99.90;;;;;;5033128;28;20389;-80
2021/08/31 09:07:24;;;;;;;8.20;4.97;;;18.70;99.90;;;;;;5031923;28;20064;-79
2021/08/31 09:10:12;;;;;;;6.80;4.20;;;18.70;99.90;;;;;;5032474;28;20456;-79
2021/08/31 09:12:40;;;;;;;6.30;4.20;;;18.70;99.90;;;;;;5010789;28;20049;-78
2021/08/31 09:15:25;;;;;;;6.85;4.25;;;18.70;99.90;;;;;;5008917;28;20049;-77
2021/08/31 09:18:07;;;;;;;7.60;4.22;;;18.80;99.90;;;;;;5025714;28;20046;-81
2021/08/31 09:20:45;;;;;;;4.40;3.88;;;18.80;99.90;;;;;;5029696;28;20152;-79
2021/08/31 09:23:29;;;;;;;6.72;4.43;;;18.90;99.90;;;;;;5018326;28;20054;-78
2021/08/31 09:26:04;;;;;;;8.25;4.13;;;19.00;99.90;;;;;;5002900;28;20060;-80
2021/08/31 09:28:34;;;;;;;3.92;3.45;;;19.00;99.90;;;;;;5004873;28;20046;-79
2021/08/31 09:31:06;;;;;;;7.53;3.63;;;19.10;99.90;;;;;;5019287;28;20406;-79
2021/08/31 09:33:42;;;;;;;4.93;3.63;;;19.10;99.90;;;;;;5008847;28;20482;-80
2021/08/31 09:36:14;;;;;;;5.50;3.72;;;19.30;99.90;;;;;;4996236;28;20483;-80
2021/08/31 09:38:56;;;;;;;5.45;3.35;;;19.40;99.90;;;;;;5037096;28;20046;-79
2021/08/31 09:41:26;;;;;;;4.65;3.85;;;19.50;99.90;;;;;;5034100;28;20048;-80
2021/08/31 09:43:55;;;;;;;6.57;3.40;;;19.60;99.90;;;;;;5031187;28;20052;-81
2021/08/31 09:46:22;;;;;;;4.00;3.42;;;19.60;99.90;;;;;;5030149;28;20053;-79
2021/08/31 09:48:49;;;;;;;6.15;3.70;;;19.60;99.90;;;;;;5017851;28;20532;-78
2021/08/31 09:51:16;;;;;;;5.15;3.33;;;19.50;99.90;;;;;;5009426;28;20049;-80
2021/08/31 09:53:43;;;;;;;6.10;3.20;;;19.50;99.90;;;;;;5032332;28;20192;-81
2021/08/31 09:56:13;;;;;;;4.60;3.15;;;19.50;99.90;;;;;;5024225;28;20046;-81
2021/08/31 09:58:49;;;;;;;6.30;4.00;;;19.50;99.90;;;;;;5009569;28;20045;-80
2021/08/31 10:01:16;;;;;;;4.28;3.25;;;19.50;99.90;;;;;;5018336;28;20049;-80
2021/08/31 10:03:44;;;;;;;5.85;3.55;;;19.50;99.90;;;;;;4990987;28;20046;-78
2021/08/31 10:06:12;;;;;;;5.40;3.25;;;19.50;99.90;;;;;;4988254;28;20058;-79
2021/08/31 10:08:39;;;;;;;5.35;3.08;;;19.50;99.90;;;;;;5022742;28;20543;-79
2021/08/31 10:11:07;;;;;;;3.95;3.10;;;19.50;99.90;;;;;;5013654;28;20076;-79
2021/08/31 10:13:36;;;;;;;3.70;2.83;;;19.60;99.90;;;;;;5021925;28;20053;-76
2021/08/31 10:16:05;;;;;;;6.18;3.10;;;19.70;99.90;;;;;;5006323;28;20123;-78
2021/08/31 10:18:32;;;;;;;3.95;3.28;;;19.80;99.90;;;;;;5010717;28;20064;-76
2021/08/31 10:21:01;;;;;;;6.68;3.40;;;19.80;99.90;;;;;;5019967;28;20045;-79
2021/08/31 10:23:42;;;;;;;6.63;3.10;;;19.70;99.90;;;;;;5020560;28;20048;-80
2021/08/31 10:26:29;;;;;;;4.40;2.78;;;19.80;99.90;;;;;;5020468;28;20465;-79
2021/08/31 10:29:15;;;;;;;5.20;2.72;;;19.80;99.90;;;;;;5008552;28;20049;-80
2021/08/31 10:31:47;;;;;;;4.68;2.63;;;19.80;99.90;;;;;;5020907;28;20099;-79
2021/08/31 10:34:33;;;;;;;3.70;2.80;;;19.90;99.90;;;;;;5004495;28;20053;-79
2021/08/31 10:37:00;;;;;;;4.25;2.60;;;20.00;99.90;;;;;;5021041;28;20072;-79
2021/08/31 10:39:53;;;;;;;3.38;2.40;;;20.10;99.90;;;;;;5025821;28;20046;-80
2021/08/31 10:42:29;;;;;;;4.25;2.53;;;20.10;99.90;;;;;;5018552;28;20482;-80
2021/08/31 10:44:57;;;;;;;4.78;2.53;;;20.10;99.90;;;;;;5026117;28;20052;-78
2021/08/31 10:47:31;;;;;;;3.55;2.70;;;20.20;99.90;;;;;;5027444;28;20058;-79
2021/08/31 10:49:58;;;;;;;4.88;3.08;;;20.30;99.90;;;;;;5029194;28;20042;-76
2021/08/31 10:52:34;;;;;;;6.13;3.15;;;20.30;99.90;;;;;;5019301;28;20069;-79
2021/08/31 10:55:04;;;;;;;5.18;3.13;;;20.20;99.90;;;;;;5026776;28;20495;-77
2021/08/31 10:57:37;;;;;;;6.22;3.58;;;20.20;99.90;;;;;;5019481;28;20450;-79
2021/08/31 11:00:24;;;;;;;4.75;2.92;;;20.10;99.90;;;;;;5027023;28;20050;-79
2021/08/31 11:02:52;;;;;;;4.32;2.80;;;20.10;99.90;;;;;;5027917;28;20557;-79
2021/08/31 11:05:25;;;;;;;4.35;2.72;;;20.10;99.90;;;;;;5013118;28;20076;-79
2021/08/31 11:07:59;;;;;;;4.25;2.80;;;20.10;99.90;;;;;;5024540;28;20056;-77
2021/08/31 11:10:32;;;;;;;3.40;2.70;;;20.10;99.90;;;;;;5023918;28;20429;-75
2021/08/31 11:13:16;;;;;;;4.07;2.92;;;20.10;99.90;;;;;;5025555;28;20053;-78
2021/08/31 11:15:46;;;;;;;4.40;2.95;;;20.20;99.90;;;;;;5006321;28;20487;-81
2021/08/31 11:18:15;;;;;;;4.57;2.75;;;20.20;99.90;;;;;;5023998;28;20394;-79
2021/08/31 11:20:45;;;;;;;2.60;2.33;;;20.30;99.90;;;;;;5027100;28;20046;-79
2021/08/31 11:23:21;;;;;;;5.18;2.50;;;20.30;99.90;;;;;;5023656;28;20045;-78
2021/08/31 11:26:01;;;;;;;4.20;2.58;;;20.40;99.90;;;;;;5007035;28;20037;-79
2021/08/31 11:28:29;;;;;;;5.88;3.00;;;20.50;99.90;;;;;;5009917;28;20053;-79
2021/08/31 11:31:05;;;;;;;;;;;20.60;99.90;;;;;;5020681;28;20560;-79
2021/08/31 11:33:35;;;;;;;4.30;2.50;;;20.60;99.90;;;;;;5009513;28;20026;-78
2021/08/31 11:36:08;;;;;;;4.53;2.88;;;20.70;99.90;;;;;;5025418;28;20050;-79
2021/08/31 11:38:47;;;;;;;5.55;3.17;;;20.80;99.90;;;;;;5016922;28;20406;-78
2021/08/31 11:41:15;;;;;;;5.80;3.20;;;20.80;99.90;;;;;;5023753;28;20065;-79
2021/08/31 11:43:44;;;;;;;6.30;2.95;;;20.80;99.90;;;;;;5006725;28;20045;-80
2021/08/31 11:46:12;;;;;;;7.55;3.47;;;20.80;99.90;;;;;;5010400;28;20446;-80
2021/08/31 11:48:39;;;;;;;5.85;3.10;;;20.70;99.90;;;;;;5010585;28;20050;-79
2021/08/31 11:51:09;;;;;;;4.57;2.83;;;20.70;99.90;;;;;;5008456;28;20046;-81
2021/08/31 11:53:36;;;;;;;4.53;2.80;;;20.60;99.90;;;;;;5021561;28;20054;-80
2021/08/31 11:56:05;;;;;;;7.00;2.60;;;20.60;99.90;;;;;;5013552;28;20441;-79
2021/08/31 11:58:44;;;;;;;12.90;2.95;;;20.60;99.90;;;;;;5008473;28;20057;-78
2021/08/31 12:01:11;;;;;;;4.75;2.30;;;20.60;99.90;;;;;;5006785;28;20042;-79
2021/08/31 12:03:38;;;;;;;3.22;2.30;;;20.60;99.90;;;;;;5011095;28;20049;-75
2021/08/31 12:06:21;;;;;;;3.08;2.15;;;20.60;99.90;;;;;;5002903;28;20057;-83
2021/08/31 12:09:26;;;;;;;4.47;2.70;;;20.70;99.90;;;;;;4994473;28;20050;-83
2021/08/31 12:16:50;;;;;;;;;;;;;;;;;;;;;
2021/08/31 12:29:56;;;;;;;5.60;2.45;;;20.90;99.90;;;;;;5045955;28;20856;-81
2021/08/31 12:32:28;;;;;;;4.43;2.47;;;21.40;99.90;;;;;;5027280;28;20047;-80
2021/08/31 12:34:57;;;;;;;3.58;2.58;;;21.50;99.90;;;;;;5030988;28;20052;-78
2021/08/31 12:37:34;;;;;;;4.55;2.72;;;21.50;99.90;;;;;;5026647;28;20227;-81
2021/08/31 12:40:19;;;;;;;3.45;2.22;;;21.50;99.90;;;;;;5014738;28;20045;-80
2021/08/31 12:42:51;;;;;;;2.90;2.17;;;21.60;99.90;;;;;;5026311;28;20045;-79
2021/08/31 12:45:29;;;;;;;3.53;2.00;;;21.70;99.90;;;;;;5013916;28;20057;-80
2021/08/31 12:48:09;;;;;;;4.95;2.40;;;21.70;99.90;;;;;;5044214;28;20148;-81
2021/08/31 12:50:52;;;;;;;2.88;2.30;;;21.90;99.90;;;;;;5048627;28;20045;-82
2021/08/31 12:53:56;;;;;;;5.35;1.92;;;22.00;99.90;;;;;;5041358;28;20388;-82
2021/08/31 12:56:23;;;;;;;2.47;2.03;;;22.10;99.90;;;;;;4985209;28;20483;-78
2021/08/31 13:06:38;;;;;;;4.60;2.10;;;21.90;99.90;;;;;;5047960;23;20140;-79
2021/08/31 13:09:09;;;;;;;6.05;2.10;;;21.90;99.90;;;;;;5053487;28;20044;-80